Terminal Aerodrome Forecast
Issued by NWS

Home | Current Version | Previous Version | Text Only | Print | Product List | Glossary On
Versions: 1 2 3 4 5 6 7 8 9 10 11 12 13 14 15 16 17 18 19 20 21
000
FTUS41 KBGM 012300
TAFELM
TAF
KELM 012339Z 0200/0224 VRB03KT P6SM FEW060 SCT150
     FM020700 00000KT 4SM BR SCT120
      TEMPO 0208/0212 1SM BR FEW002
     FM021400 15007KT P6SM SCT050 BKN100=

USA.gov is the U.S. government's official web portal to all federal, state and local government web resources and services.